createdAt,value
2018-03-30T00:00:51.906Z,99.90
2018-03-30T00:03:19.027Z,99.90
2018-03-30T00:05:46.079Z,99.90
2018-03-30T00:18:14.408Z,99.90
2018-03-30T00:20:41.476Z,99.90
2018-03-30T00:23:08.592Z,99.90
2018-03-30T00:25:35.655Z,99.90
2018-03-30T00:28:03.536Z,99.90
2018-03-30T00:30:31.610Z,99.90
2018-03-30T00:32:59.399Z,99.90
2018-03-30T00:35:26.454Z,99.90
2018-03-30T00:40:34.665Z,99.90
2018-03-30T00:43:02.600Z,99.90
2018-03-30T00:45:29.654Z,99.90
2018-03-30T00:52:51.081Z,99.90
2018-03-30T00:55:18.132Z,99.90
2018-03-30T00:57:46.166Z,99.90
2018-03-30T01:00:14.178Z,99.90
2018-03-30T01:02:42.166Z,99.90
2018-03-30T01:05:09.253Z,99.90
2018-03-30T01:07:37.280Z,99.90
2018-03-30T01:10:04.332Z,99.90
2018-03-30T01:12:31.437Z,99.90
2018-03-30T01:14:59.331Z,99.90
2018-03-30T01:17:26.421Z,99.90
2018-03-30T01:19:53.510Z,99.90
2018-03-30T01:22:21.393Z,99.90
2018-03-30T01:24:48.452Z,99.90
2018-03-30T01:27:16.539Z,99.90
2018-03-30T01:29:43.592Z,99.90
2018-03-30T01:32:10.638Z,99.90
2018-03-30T01:34:39.569Z,99.90
2018-03-30T01:37:06.628Z,99.90
2018-03-30T01:39:35.853Z,99.90
2018-03-30T01:42:03.882Z,99.90
2018-03-30T01:44:31.807Z,99.90
2018-03-30T01:46:58.867Z,99.90
2018-03-30T01:49:25.961Z,99.90
2018-03-30T01:54:20.158Z,99.90
2018-03-30T01:56:48.119Z,99.90
2018-03-30T01:59:15.186Z,99.90
2018-03-30T02:01:42.638Z,99.90
2018-03-30T02:06:50.211Z,99.90
2018-03-30T02:09:18.250Z,99.90
2018-03-30T02:11:46.234Z,99.90
2018-03-30T02:14:13.277Z,99.90
2018-03-30T02:16:41.508Z,99.90
2018-03-30T02:19:08.550Z,99.90
2018-03-30T02:21:35.597Z,99.90
2018-03-30T02:24:03.632Z,99.90
2018-03-30T02:26:30.680Z,99.90
2018-03-30T02:28:57.736Z,99.90
2018-03-30T02:31:24.848Z,99.90
2018-03-30T02:33:51.887Z,99.90
2018-03-30T02:36:19.775Z,99.90
2018-03-30T02:38:46.854Z,99.90
2018-03-30T02:41:14.876Z,99.90
2018-03-30T02:43:41.923Z,99.90
2018-03-30T02:46:09.013Z,99.90
2018-03-30T02:48:36.061Z,99.90
2018-03-30T02:51:03.937Z,99.90
2018-03-30T02:53:31.060Z,99.90
2018-03-30T02:55:58.117Z,99.90
2018-03-30T02:58:25.170Z,99.90
2018-03-30T03:00:52.232Z,99.90
2018-03-30T03:03:19.276Z,99.90
2018-03-30T03:05:46.316Z,99.90
2018-03-30T03:08:13.401Z,99.90
2018-03-30T03:10:40.440Z,99.90
2018-03-30T03:13:07.510Z,99.90
2018-03-30T03:15:34.605Z,99.90
2018-03-30T03:18:01.648Z,99.90
2018-03-30T03:20:28.703Z,99.90
2018-03-30T03:22:55.811Z,99.90
2018-03-30T03:25:22.881Z,99.90
2018-03-30T03:30:29.413Z,99.90
2018-03-30T03:32:57.399Z,99.90
2018-03-30T03:35:24.486Z,99.90
2018-03-30T03:37:51.557Z,99.90
2018-03-30T03:40:18.607Z,99.90
2018-03-30T03:42:45.661Z,99.90
2018-03-30T03:45:12.729Z,99.90
2018-03-30T03:47:40.606Z,99.90
2018-03-30T03:50:07.658Z,99.90
2018-03-30T03:52:36.622Z,99.90
2018-03-30T03:55:03.662Z,99.90
2018-03-30T03:57:30.708Z,99.90
2018-03-30T03:59:57.790Z,99.90
2018-03-30T04:02:24.844Z,99.90
2018-03-30T04:07:19.124Z,99.90
2018-03-30T04:09:46.170Z,99.90
2018-03-30T04:12:14.146Z,99.90
2018-03-30T04:14:41.243Z,99.90
2018-03-30T04:17:08.292Z,99.90
2018-03-30T04:19:35.346Z,99.90
2018-03-30T04:22:04.223Z,99.90
2018-03-30T04:24:31.281Z,99.90
2018-03-30T04:26:58.349Z,99.90
2018-03-30T04:29:25.428Z,99.90
2018-03-30T04:31:52.465Z,99.90
2018-03-30T04:36:48.405Z,99.90
2018-03-30T04:39:15.451Z,99.90
2018-03-30T04:44:12.684Z,99.90
2018-03-30T04:46:39.720Z,99.90
2018-03-30T04:49:06.763Z,99.90
2018-03-30T04:54:14.326Z,99.90
2018-03-30T04:56:42.352Z,99.90
2018-03-30T04:59:09.403Z,99.90
2018-03-30T05:01:36.795Z,99.90
2018-03-30T05:04:04.642Z,99.90
2018-03-30T05:06:32.518Z,99.90
2018-03-30T05:11:26.719Z,99.90
2018-03-30T05:13:53.759Z,99.90
2018-03-30T05:16:23.090Z,99.90
2018-03-30T05:18:50.176Z,99.90
2018-03-30T05:21:18.187Z,99.90
2018-03-30T05:23:45.235Z,99.90
2018-03-30T05:26:12.294Z,99.90
2018-03-30T05:28:40.286Z,99.90
2018-03-30T05:31:07.323Z,99.90
2018-03-30T05:33:35.344Z,99.90
2018-03-30T05:36:03.331Z,99.90
2018-03-30T05:38:31.621Z,99.90
2018-03-30T05:40:59.680Z,99.90
2018-03-30T05:43:27.652Z,99.90
2018-03-30T05:45:54.694Z,99.90
2018-03-30T05:48:21.821Z,99.90
2018-03-30T05:50:48.872Z,99.90
2018-03-30T05:58:11.215Z,99.90
2018-03-30T06:00:38.279Z,99.90
2018-03-30T06:03:05.384Z,99.90
2018-03-30T06:05:32.432Z,99.90
2018-03-30T06:07:59.468Z,99.90
2018-03-30T06:10:26.577Z,99.90
2018-03-30T06:12:53.632Z,99.90
2018-03-30T06:17:59.190Z,99.90
2018-03-30T06:22:54.166Z,99.90
2018-03-30T06:25:21.252Z,99.90
2018-03-30T06:27:48.334Z,99.90
2018-03-30T06:30:15.384Z,99.90
2018-03-30T06:32:42.474Z,99.90
2018-03-30T06:35:09.512Z,99.90
2018-03-30T06:40:04.576Z,99.90
2018-03-30T06:42:32.591Z,99.90
2018-03-30T06:44:59.638Z,99.90
2018-03-30T06:52:22.542Z,99.90
2018-03-30T06:54:49.617Z,99.90
2018-03-30T06:57:20.435Z,99.90
2018-03-30T06:59:47.471Z,99.90
2018-03-30T07:02:14.562Z,99.90
2018-03-30T07:04:41.623Z,99.90
2018-03-30T07:07:09.033Z,99.90
2018-03-30T07:09:37.059Z,99.90
2018-03-30T07:12:04.109Z,99.90
2018-03-30T07:14:31.156Z,99.90
2018-03-30T07:16:59.160Z,99.90
2018-03-30T07:19:26.198Z,99.90
2018-03-30T07:21:54.185Z,99.90
2018-03-30T07:24:21.268Z,99.90
2018-03-30T07:26:49.214Z,99.90
2018-03-30T07:29:16.272Z,99.90
2018-03-30T07:31:43.323Z,99.90
2018-03-30T07:34:12.489Z,99.90
2018-03-30T07:36:37.428Z,99.90
2018-03-30T07:41:46.584Z,99.90
2018-03-30T07:44:13.653Z,99.90
2018-03-30T07:46:40.718Z,99.90
2018-03-30T07:49:07.738Z,99.90
2018-03-30T07:51:34.821Z,99.90
2018-03-30T07:54:02.804Z,99.90
2018-03-30T07:56:29.840Z,99.90
2018-03-30T07:58:56.922Z,99.90
2018-03-30T08:01:23.969Z,99.90
2018-03-30T08:03:51.032Z,99.90
2018-03-30T08:06:18.099Z,99.90
2018-03-30T08:08:45.169Z,99.90
2018-03-30T08:11:14.476Z,99.90
2018-03-30T08:13:44.429Z,99.90
2018-03-30T08:16:11.581Z,99.90
2018-03-30T08:18:40.944Z,99.90
2018-03-30T08:21:09.004Z,98.30
2018-03-30T08:23:36.954Z,99.90
2018-03-30T08:26:04.954Z,94.60
2018-03-30T08:28:32.041Z,98.80
2018-03-30T08:30:59.895Z,99.40
2018-03-30T08:35:55.235Z,99.90
2018-03-30T08:38:22.260Z,97.60
2018-03-30T08:40:49.489Z,98.00
2018-03-30T08:43:16.556Z,97.40
2018-03-30T08:48:10.743Z,93.80
2018-03-30T08:50:37.829Z,94.30
2018-03-30T08:53:04.914Z,98.10
2018-03-30T08:55:32.915Z,94.40
2018-03-30T09:00:27.137Z,95.60
2018-03-30T09:02:55.128Z,93.10
2018-03-30T09:08:00.694Z,93.80
2018-03-30T09:10:28.704Z,93.60
2018-03-30T09:12:56.677Z,92.30
2018-03-30T09:15:24.725Z,89.30
2018-03-30T09:17:51.803Z,91.20
2018-03-30T09:20:18.848Z,92.90
2018-03-30T09:25:13.761Z,96.50
2018-03-30T09:32:36.403Z,89.00
2018-03-30T09:35:03.433Z,86.60
2018-03-30T09:37:31.304Z,85.20
2018-03-30T09:39:58.368Z,84.70
2018-03-30T09:42:26.350Z,82.00
2018-03-30T09:44:54.349Z,85.60
2018-03-30T09:47:22.353Z,93.90
2018-03-30T09:49:50.352Z,87.50
2018-03-30T09:52:18.333Z,87.40
2018-03-30T09:54:46.396Z,91.40
2018-03-30T09:57:13.443Z,91.60
2018-03-30T10:02:21.701Z,90.10
2018-03-30T10:07:28.697Z,87.80
2018-03-30T10:09:55.758Z,88.00
2018-03-30T10:12:23.761Z,81.90
2018-03-30T10:14:50.836Z,79.00
2018-03-30T10:17:17.882Z,74.30
2018-03-30T10:19:46.779Z,74.10
2018-03-30T10:22:13.861Z,74.60
2018-03-30T10:24:45.823Z,76.80
2018-03-30T10:27:09.736Z,77.40
2018-03-30T10:29:36.798Z,74.80
2018-03-30T10:36:58.882Z,77.30
2018-03-30T10:39:25.946Z,80.30
2018-03-30T10:41:52.996Z,76.80
2018-03-30T10:44:20.087Z,72.60
2018-03-30T10:46:47.136Z,75.00
2018-03-30T10:51:41.352Z,64.40
2018-03-30T10:54:08.404Z,63.00
2018-03-30T10:56:36.386Z,67.90
2018-03-30T10:59:03.517Z,60.30
2018-03-30T11:01:31.414Z,55.60
2018-03-30T11:03:58.453Z,57.30
2018-03-30T11:06:26.492Z,55.50
2018-03-30T11:08:54.476Z,57.00
2018-03-30T11:11:21.560Z,56.00
2018-03-30T11:13:48.664Z,52.20
2018-03-30T11:16:15.745Z,54.90
2018-03-30T11:18:42.786Z,58.20
2018-03-30T11:21:10.284Z,52.50
2018-03-30T11:28:43.847Z,45.80
2018-03-30T11:31:11.734Z,44.70
2018-03-30T11:33:39.731Z,44.90
2018-03-30T11:36:07.848Z,44.40
2018-03-30T11:38:35.723Z,44.70
2018-03-30T11:41:02.772Z,45.80
2018-03-30T11:43:29.846Z,44.60
2018-03-30T11:45:57.834Z,42.00
2018-03-30T11:48:25.768Z,43.70
2018-03-30T11:50:52.922Z,41.50
2018-03-30T11:53:19.984Z,41.10
2018-03-30T11:55:47.832Z,40.50
2018-03-30T11:58:14.984Z,41.30
2018-03-30T12:00:42.051Z,39.00
2018-03-30T12:03:10.083Z,38.80
2018-03-30T12:05:38.178Z,38.60
2018-03-30T12:08:05.254Z,37.40
2018-03-30T12:10:32.311Z,39.30
2018-03-30T12:15:26.646Z,38.20
2018-03-30T12:17:54.559Z,36.60
2018-03-30T12:20:21.705Z,37.30
2018-03-30T12:22:48.779Z,37.90
2018-03-30T12:25:15.885Z,36.90
2018-03-30T12:27:43.900Z,36.10
2018-03-30T12:30:10.968Z,34.80
2018-03-30T12:32:38.088Z,35.20
2018-03-30T12:35:05.180Z,36.60
2018-03-30T12:37:33.186Z,34.80
2018-03-30T12:40:00.252Z,37.70
2018-03-30T12:42:27.405Z,36.80
2018-03-30T12:44:54.490Z,36.90
2018-03-30T12:52:30.241Z,37.80
2018-03-30T12:54:55.427Z,37.80
2018-03-30T12:59:49.735Z,37.40
2018-03-30T13:02:16.820Z,37.20
2018-03-30T13:04:44.742Z,37.60
2018-03-30T13:07:11.806Z,38.10
2018-03-30T13:09:38.932Z,38.10
2018-03-30T13:14:34.029Z,37.50
2018-03-30T13:17:01.103Z,38.10
2018-03-30T13:19:28.276Z,39.00
2018-03-30T13:21:56.145Z,37.00
2018-03-30T13:24:23.218Z,39.50
2018-03-30T13:26:51.228Z,37.30
2018-03-30T13:29:18.304Z,38.00
2018-03-30T13:31:46.118Z,38.70
2018-03-30T13:34:13.266Z,39.30
2018-03-30T13:36:40.330Z,40.50
2018-03-30T13:39:07.428Z,42.00
2018-03-30T13:41:34.567Z,42.70
2018-03-30T13:44:01.628Z,44.40
2018-03-30T13:46:29.658Z,43.80
2018-03-30T13:48:57.740Z,43.90
2018-03-30T13:54:05.577Z,43.70
2018-03-30T14:09:49.046Z,40.70
2018-03-30T14:12:21.061Z,41.00
2018-03-30T14:14:48.183Z,40.60
2018-03-30T14:22:50.267Z,39.60
2018-03-30T14:27:57.564Z,40.30
2018-03-30T14:30:25.618Z,41.60
2018-03-30T14:32:55.510Z,42.70
2018-03-30T14:38:14.340Z,42.90
2018-03-30T14:40:41.507Z,42.60
2018-03-30T14:43:09.386Z,41.30
2018-03-30T14:45:37.389Z,41.80
2018-03-30T14:48:04.557Z,42.30
2018-03-30T15:03:57.391Z,39.60
2018-03-30T15:14:29.789Z,39.50
2018-03-30T15:19:44.881Z,38.00
2018-03-30T15:27:41.056Z,38.80
2018-03-30T15:30:14.945Z,39.10
2018-03-30T15:38:13.024Z,39.00
2018-03-30T15:40:41.137Z,39.60
2018-03-30T15:48:33.340Z,37.80
2018-03-30T15:53:39.068Z,39.60
2018-03-30T15:56:07.169Z,38.80
2018-03-30T15:58:34.229Z,38.80
2018-03-30T16:01:01.299Z,41.30
2018-03-30T16:03:29.318Z,41.60
2018-03-30T16:05:57.217Z,42.20
2018-03-30T16:08:24.280Z,42.90
2018-03-30T16:10:52.387Z,43.10
2018-03-30T16:13:19.502Z,43.70
2018-03-30T16:15:47.364Z,44.90
2018-03-30T16:18:14.496Z,45.70
2018-03-30T16:20:41.976Z,46.90
2018-03-30T16:23:08.551Z,46.20
2018-03-30T16:25:35.196Z,46.30
2018-03-30T16:28:03.530Z,46.80
2018-03-30T16:30:30.124Z,46.20
2018-03-30T16:32:57.630Z,45.60
2018-03-30T16:35:24.239Z,46.20
2018-03-30T16:37:51.772Z,47.70
2018-03-30T16:40:18.449Z,46.50
2018-03-30T16:42:45.500Z,48.80
2018-03-30T16:45:12.087Z,48.00
2018-03-30T16:47:39.694Z,46.20
2018-03-30T16:50:09.214Z,47.30
2018-03-30T16:52:33.831Z,47.30
2018-03-30T16:55:00.468Z,47.80
2018-03-30T16:57:27.449Z,49.80
2018-03-30T17:05:00.834Z,47.70
2018-03-30T17:07:27.498Z,44.80
2018-03-30T17:09:54.918Z,44.60
2018-03-30T17:12:21.493Z,44.60
2018-03-30T17:14:48.995Z,44.20
2018-03-30T17:17:18.320Z,43.60
2018-03-30T17:19:45.177Z,43.00
2018-03-30T17:22:11.814Z,43.80
2018-03-30T17:24:38.372Z,44.00
2018-03-30T17:29:33.310Z,44.60
2018-03-30T17:31:59.910Z,44.60
2018-03-30T17:34:27.321Z,44.20
2018-03-30T17:36:53.956Z,43.80
2018-03-30T17:39:21.425Z,44.10
2018-03-30T17:41:48.098Z,42.10
2018-03-30T17:46:42.668Z,41.30
2018-03-30T17:49:10.200Z,41.00
2018-03-30T17:51:37.006Z,41.90
2018-03-30T17:54:03.561Z,41.80
2018-03-30T17:56:31.121Z,41.70
2018-03-30T17:58:58.519Z,41.20
2018-03-30T18:01:26.115Z,42.20
2018-03-30T18:03:53.673Z,42.00
2018-03-30T18:08:47.229Z,40.20
2018-03-30T18:11:13.804Z,41.40
2018-03-30T18:13:40.471Z,40.40
2018-03-30T18:16:08.094Z,40.00
2018-03-30T18:18:34.724Z,40.20
2018-03-30T18:23:28.292Z,40.10
2018-03-30T18:28:34.062Z,39.90
2018-03-30T18:33:27.635Z,40.20
2018-03-30T18:35:55.288Z,40.20
2018-03-30T18:38:21.872Z,40.40
2018-03-30T18:40:48.817Z,39.70
2018-03-30T18:43:15.493Z,39.40
2018-03-30T18:45:42.118Z,39.20
2018-03-30T18:48:08.694Z,38.60
2018-03-30T18:50:35.342Z,38.30
2018-03-30T18:53:01.972Z,38.50
2018-03-30T18:55:28.596Z,39.10
2018-03-30T18:57:55.258Z,39.20
2018-03-30T19:00:21.834Z,39.60
2018-03-30T19:02:48.420Z,39.60
2018-03-30T19:05:15.083Z,39.60
2018-03-30T19:07:41.658Z,38.80
2018-03-30T19:10:09.052Z,39.40
2018-03-30T19:12:35.697Z,40.30
2018-03-30T19:15:03.099Z,40.00
2018-03-30T19:17:29.671Z,39.90
2018-03-30T19:19:57.195Z,40.20
2018-03-30T19:22:23.786Z,42.60
2018-03-30T19:24:50.359Z,43.30
2018-03-30T19:27:17.068Z,42.20
2018-03-30T19:29:43.670Z,42.50
2018-03-30T19:32:10.264Z,42.50
2018-03-30T19:34:38.403Z,41.50
2018-03-30T19:37:06.053Z,41.00
2018-03-30T19:39:32.611Z,41.20
2018-03-30T19:41:59.280Z,40.10
2018-03-30T19:44:26.852Z,39.50
2018-03-30T19:46:54.394Z,39.60
2018-03-30T19:49:21.040Z,40.50
2018-03-30T19:56:54.029Z,41.80
2018-03-30T19:59:20.628Z,41.90
2018-03-30T20:01:47.189Z,42.20
2018-03-30T20:04:14.665Z,42.00
2018-03-30T20:06:41.233Z,41.70
2018-03-30T20:11:34.867Z,42.20
2018-03-30T20:14:01.441Z,42.60
2018-03-30T20:18:55.075Z,44.00
2018-03-30T20:21:22.161Z,44.20
2018-03-30T20:23:48.786Z,44.50
2018-03-30T20:26:15.455Z,44.50
2018-03-30T20:28:43.032Z,45.80
2018-03-30T20:31:09.610Z,47.30
2018-03-30T20:33:36.271Z,46.80
2018-03-30T20:36:03.143Z,47.00
2018-03-30T20:38:29.722Z,46.10
2018-03-30T20:40:56.368Z,46.70
2018-03-30T20:43:22.921Z,47.50
2018-03-30T20:48:16.895Z,47.70
2018-03-30T20:50:43.887Z,47.10
2018-03-30T20:53:11.208Z,48.20
2018-03-30T20:58:04.795Z,47.90
2018-03-30T21:00:31.369Z,49.00
2018-03-30T21:02:58.975Z,49.50
2018-03-30T21:05:25.536Z,49.60
2018-03-30T21:07:52.157Z,50.50
2018-03-30T21:10:18.786Z,51.20
2018-03-30T21:17:54.285Z,54.30
2018-03-30T21:20:20.855Z,54.50
2018-03-30T21:22:48.407Z,54.70
2018-03-30T21:25:15.025Z,55.20
2018-03-30T21:27:41.631Z,55.30
2018-03-30T21:30:08.218Z,55.50
2018-03-30T21:32:35.692Z,54.60
2018-03-30T21:35:02.271Z,54.00
2018-03-30T21:39:57.821Z,53.60
2018-03-30T21:42:24.439Z,54.20
2018-03-30T21:44:51.026Z,53.80
2018-03-30T21:47:17.684Z,53.60
2018-03-30T21:49:45.032Z,53.10
2018-03-30T21:52:12.382Z,53.10
2018-03-30T21:54:39.077Z,53.10
2018-03-30T21:57:05.644Z,52.50
2018-03-30T21:59:32.237Z,51.70
2018-03-30T22:01:58.879Z,51.40
2018-03-30T22:04:28.886Z,51.00
2018-03-30T22:06:55.453Z,50.20
2018-03-30T22:09:22.116Z,48.70
2018-03-30T22:11:48.690Z,50.00
2018-03-30T22:14:15.265Z,48.90
2018-03-30T22:16:45.164Z,49.40
2018-03-30T22:19:12.100Z,49.40
2018-03-30T22:21:39.658Z,48.20
2018-03-30T22:24:06.282Z,46.90
2018-03-30T22:26:32.884Z,45.60
2018-03-30T22:28:59.509Z,46.30
2018-03-30T22:31:29.058Z,46.50
2018-03-30T22:33:55.643Z,46.70
2018-03-30T22:36:22.218Z,46.10
2018-03-30T22:38:48.899Z,46.00
2018-03-30T22:41:17.034Z,46.10
2018-03-30T22:46:21.694Z,45.60
2018-03-30T22:48:49.156Z,45.10
2018-03-30T22:51:15.726Z,44.90
2018-03-30T22:53:43.312Z,43.20
2018-03-30T22:58:39.066Z,43.40
2018-03-30T23:01:10.155Z,43.90
2018-03-30T23:03:37.685Z,43.20
2018-03-30T23:06:04.272Z,43.40
2018-03-30T23:10:57.848Z,44.50
2018-03-30T23:13:24.424Z,43.20
2018-03-30T23:15:51.050Z,43.20
2018-03-30T23:18:20.418Z,44.20
2018-03-30T23:20:47.036Z,42.90
2018-03-30T23:23:13.685Z,43.50
2018-03-30T23:25:41.977Z,44.30
2018-03-30T23:28:08.825Z,44.00
2018-03-30T23:30:35.514Z,44.50
2018-03-30T23:33:02.981Z,46.00
2018-03-30T23:35:29.579Z,50.90
2018-03-30T23:37:56.192Z,52.50
2018-03-30T23:40:23.623Z,54.70
2018-03-30T23:42:50.184Z,55.50
2018-03-30T23:45:16.869Z,57.90
2018-03-30T23:47:43.711Z,58.90
2018-03-30T23:50:10.286Z,61.40
2018-03-30T23:52:36.904Z,61.50
2018-03-30T23:55:03.478Z,65.30
2018-03-30T23:57:31.543Z,70.60
2018-03-30T23:59:58.187Z,71.90
